createdAt,value
2017-12-14T00:00:24.308Z,990.13
2017-12-14T00:01:51.478Z,990.05
2017-12-14T00:03:18.766Z,989.98
2017-12-14T00:04:45.945Z,989.90
2017-12-14T00:06:13.097Z,989.85
2017-12-14T00:07:40.251Z,989.81
2017-12-14T00:09:07.477Z,989.80
2017-12-14T00:10:34.554Z,989.82
2017-12-14T00:12:01.894Z,989.80
2017-12-14T00:13:29.303Z,989.78
2017-12-14T00:14:56.641Z,989.71
2017-12-14T00:16:24.009Z,989.68
2017-12-14T00:17:51.214Z,989.63
2017-12-14T00:19:18.408Z,989.62
2017-12-14T00:20:45.531Z,989.56
2017-12-14T00:22:12.622Z,989.55
2017-12-14T00:23:39.778Z,989.49
2017-12-14T00:25:06.808Z,989.43
2017-12-14T00:26:33.996Z,989.43
2017-12-14T00:28:01.154Z,989.42
2017-12-14T00:29:28.406Z,989.38
2017-12-14T00:30:55.576Z,989.38
2017-12-14T00:32:22.934Z,989.34
2017-12-14T00:33:50.270Z,989.32
2017-12-14T00:35:17.332Z,989.24
2017-12-14T00:36:44.543Z,989.23
2017-12-14T00:38:11.739Z,989.19
2017-12-14T00:39:38.929Z,989.18
2017-12-14T00:41:05.972Z,989.10
2017-12-14T00:42:33.301Z,989.11
2017-12-14T00:44:00.593Z,989.06
2017-12-14T00:45:27.810Z,989.03
2017-12-14T00:46:55.172Z,989.02
2017-12-14T00:48:22.498Z,988.96
2017-12-14T00:49:49.520Z,988.96
2017-12-14T00:51:16.728Z,988.95
2017-12-14T00:52:43.928Z,988.94
2017-12-14T00:54:11.108Z,988.87
2017-12-14T00:55:38.241Z,988.85
2017-12-14T00:57:05.300Z,988.79
2017-12-14T00:58:32.608Z,988.78
2017-12-14T00:59:59.558Z,988.73
2017-12-14T01:01:26.924Z,988.68
2017-12-14T01:02:54.115Z,988.67
2017-12-14T01:04:21.425Z,988.63
2017-12-14T01:05:48.679Z,988.60
2017-12-14T01:07:15.797Z,988.60
2017-12-14T01:08:42.876Z,988.56
2017-12-14T01:10:09.938Z,988.54
2017-12-14T01:11:37.109Z,988.48
2017-12-14T01:13:04.272Z,988.51
2017-12-14T01:14:31.345Z,988.47
2017-12-14T01:15:58.567Z,988.48
2017-12-14T01:17:25.627Z,988.40
2017-12-14T01:18:52.879Z,988.38
2017-12-14T01:20:19.951Z,988.32
2017-12-14T01:21:47.204Z,988.29
2017-12-14T01:23:14.493Z,988.25
2017-12-14T01:24:41.621Z,988.21
2017-12-14T01:26:08.968Z,988.21
2017-12-14T01:27:36.064Z,988.19
2017-12-14T01:29:03.370Z,988.16
2017-12-14T01:30:30.758Z,988.11
2017-12-14T01:31:57.944Z,988.06
2017-12-14T01:33:24.973Z,988.01
2017-12-14T01:34:52.246Z,987.96
2017-12-14T01:36:19.206Z,987.93
2017-12-14T01:37:46.382Z,987.90
2017-12-14T01:39:13.631Z,987.86
2017-12-14T01:40:40.825Z,987.83
2017-12-14T01:42:08.077Z,987.85
2017-12-14T01:43:35.174Z,987.81
2017-12-14T01:45:02.396Z,987.82
2017-12-14T01:46:29.626Z,987.74
2017-12-14T01:47:56.790Z,987.73
2017-12-14T01:49:23.771Z,987.66
2017-12-14T01:50:50.952Z,987.66
2017-12-14T01:52:18.239Z,987.60
2017-12-14T01:53:45.290Z,987.54
2017-12-14T01:55:12.340Z,987.53
2017-12-14T01:56:39.397Z,987.51
2017-12-14T01:58:06.416Z,987.47
2017-12-14T01:59:33.539Z,987.44
2017-12-14T02:01:00.754Z,987.40
2017-12-14T02:02:28.002Z,987.36
2017-12-14T02:03:55.096Z,987.30
2017-12-14T02:05:22.336Z,987.26
2017-12-14T02:06:49.649Z,987.23
2017-12-14T02:08:16.748Z,987.19
2017-12-14T02:09:43.956Z,987.14
2017-12-14T02:11:11.163Z,987.13
2017-12-14T02:12:38.425Z,987.10
2017-12-14T02:14:05.305Z,987.11
2017-12-14T02:15:32.094Z,987.08
2017-12-14T02:16:59.154Z,987.01
2017-12-14T02:18:26.069Z,986.98
2017-12-14T02:19:53.033Z,986.94
2017-12-14T02:21:20.230Z,986.86
2017-12-14T02:22:47.354Z,986.85
2017-12-14T02:24:14.470Z,986.81
2017-12-14T02:25:41.631Z,986.80
2017-12-14T02:27:08.729Z,986.72
2017-12-14T02:28:35.871Z,986.63
2017-12-14T02:30:02.791Z,986.60
2017-12-14T02:31:29.869Z,986.59
2017-12-14T02:32:57.030Z,986.55
2017-12-14T02:34:24.275Z,986.54
2017-12-14T02:35:51.566Z,986.52
2017-12-14T02:37:18.743Z,986.48
2017-12-14T02:38:45.952Z,986.51
2017-12-14T02:40:13.218Z,986.47
2017-12-14T02:41:40.249Z,986.45
2017-12-14T02:43:07.379Z,986.45
2017-12-14T02:44:34.483Z,986.39
2017-12-14T02:46:01.622Z,986.31
2017-12-14T02:47:28.788Z,986.28
2017-12-14T02:48:56.035Z,986.32
2017-12-14T02:50:23.178Z,986.30
2017-12-14T02:51:50.485Z,986.28
2017-12-14T02:53:17.771Z,986.21
2017-12-14T02:54:44.986Z,986.21
2017-12-14T02:56:12.155Z,986.22
2017-12-14T02:57:39.178Z,986.18
2017-12-14T02:59:06.132Z,986.22
2017-12-14T03:00:33.260Z,986.12
2017-12-14T03:02:00.421Z,986.11
2017-12-14T03:03:27.640Z,986.12
2017-12-14T03:04:54.956Z,986.08
2017-12-14T03:06:22.052Z,986.09
2017-12-14T03:07:49.093Z,986.11
2017-12-14T03:09:16.440Z,986.09
2017-12-14T03:10:43.537Z,986.09
2017-12-14T03:12:10.813Z,986.07
2017-12-14T03:13:37.927Z,985.99
2017-12-14T03:15:04.930Z,986.02
2017-12-14T03:16:32.019Z,986.00
2017-12-14T03:17:59.313Z,985.97
2017-12-14T03:19:26.551Z,985.96
2017-12-14T03:20:53.745Z,985.94
2017-12-14T03:22:20.721Z,985.92
2017-12-14T03:23:47.828Z,985.90
2017-12-14T03:25:15.166Z,985.87
2017-12-14T03:26:42.441Z,985.88
2017-12-14T03:28:09.658Z,985.83
2017-12-14T03:29:36.726Z,985.84
2017-12-14T03:31:03.871Z,985.83
2017-12-14T03:32:31.017Z,985.81
2017-12-14T03:33:58.304Z,985.78
2017-12-14T03:35:25.445Z,985.84
2017-12-14T03:36:52.617Z,985.75
2017-12-14T03:38:19.835Z,985.76
2017-12-14T03:39:46.862Z,985.68
2017-12-14T03:41:14.103Z,985.66
2017-12-14T03:42:41.336Z,985.70
2017-12-14T03:44:08.519Z,985.70
2017-12-14T03:45:35.644Z,985.63
2017-12-14T03:47:02.865Z,985.63
2017-12-14T03:48:29.968Z,985.67
2017-12-14T03:49:57.233Z,985.71
2017-12-14T03:51:24.556Z,985.72
2017-12-14T03:52:51.778Z,985.77
2017-12-14T03:54:18.897Z,985.70
2017-12-14T03:55:46.153Z,985.67
2017-12-14T03:57:13.283Z,985.61
2017-12-14T03:58:40.551Z,985.68
2017-12-14T04:00:07.509Z,985.79
2017-12-14T04:01:34.697Z,985.91
2017-12-14T04:03:02.033Z,985.91
2017-12-14T04:04:29.107Z,985.87
2017-12-14T04:05:56.255Z,985.87
2017-12-14T04:07:23.307Z,985.90
2017-12-14T04:08:50.519Z,985.90
2017-12-14T04:10:17.897Z,985.89
2017-12-14T04:11:44.944Z,985.89
2017-12-14T04:13:12.177Z,985.92
2017-12-14T04:14:39.192Z,985.96
2017-12-14T04:16:06.353Z,985.93
2017-12-14T04:17:33.635Z,985.98
2017-12-14T04:19:00.820Z,986.05
2017-12-14T04:20:28.113Z,986.08
2017-12-14T04:21:55.331Z,986.10
2017-12-14T04:23:22.487Z,986.12
2017-12-14T04:24:49.582Z,986.14
2017-12-14T04:26:16.665Z,986.10
2017-12-14T04:27:43.967Z,986.07
2017-12-14T04:29:11.230Z,986.06
2017-12-14T04:30:38.324Z,986.08
2017-12-14T04:32:05.504Z,986.04
2017-12-14T04:33:32.791Z,986.09
2017-12-14T04:34:59.939Z,986.11
2017-12-14T04:36:27.215Z,986.16
2017-12-14T04:37:54.311Z,986.15
2017-12-14T04:39:21.517Z,986.19
2017-12-14T04:40:48.566Z,986.25
2017-12-14T04:42:15.771Z,986.23
2017-12-14T04:43:43.010Z,986.23
2017-12-14T04:45:10.118Z,986.23
2017-12-14T04:46:37.336Z,986.28
2017-12-14T04:48:04.367Z,986.28
2017-12-14T04:49:31.536Z,986.29
2017-12-14T04:50:58.766Z,986.28
2017-12-14T04:52:25.912Z,986.26
2017-12-14T04:53:53.157Z,986.24
2017-12-14T04:55:20.149Z,986.22
2017-12-14T04:56:47.356Z,986.22
2017-12-14T04:58:14.502Z,986.18
2017-12-14T04:59:41.443Z,986.22
2017-12-14T05:01:08.475Z,986.22
2017-12-14T05:02:35.558Z,986.24
2017-12-14T05:04:02.741Z,986.27
2017-12-14T05:05:29.646Z,986.26
2017-12-14T05:06:56.914Z,986.28
2017-12-14T05:08:24.286Z,986.25
2017-12-14T05:09:51.419Z,986.27
2017-12-14T05:11:18.701Z,986.28
2017-12-14T05:12:46.079Z,986.37
2017-12-14T05:14:13.202Z,986.42
2017-12-14T05:15:40.411Z,986.39
2017-12-14T05:17:07.643Z,986.44
2017-12-14T05:18:34.719Z,986.52
2017-12-14T05:20:01.975Z,986.47
2017-12-14T05:21:29.230Z,986.45
2017-12-14T05:22:56.688Z,986.46
2017-12-14T05:24:23.936Z,986.47
2017-12-14T05:25:50.977Z,986.47
2017-12-14T05:27:17.913Z,986.47
2017-12-14T05:28:45.138Z,986.56
2017-12-14T05:30:12.275Z,986.50
2017-12-14T05:31:39.547Z,986.49
2017-12-14T05:33:06.547Z,986.53
2017-12-14T05:34:33.773Z,986.54
2017-12-14T05:36:01.009Z,986.57
2017-12-14T05:37:28.447Z,986.50
2017-12-14T05:38:55.609Z,986.57
2017-12-14T05:40:22.551Z,986.60
2017-12-14T05:41:49.842Z,986.55
2017-12-14T05:43:16.910Z,986.59
2017-12-14T05:44:44.161Z,986.58
2017-12-14T05:46:11.397Z,986.63
2017-12-14T05:47:38.619Z,986.66
2017-12-14T05:49:05.659Z,986.70
2017-12-14T05:50:32.896Z,986.72
2017-12-14T05:52:00.325Z,986.65
2017-12-14T05:53:27.451Z,986.69
2017-12-14T05:54:54.705Z,986.76
2017-12-14T05:56:22.008Z,986.85
2017-12-14T05:57:49.295Z,986.82
2017-12-14T05:59:16.656Z,986.77
2017-12-14T06:00:43.757Z,986.79
2017-12-14T06:02:10.887Z,986.80
2017-12-14T06:03:38.048Z,986.88
2017-12-14T06:05:05.279Z,986.82
2017-12-14T06:06:32.528Z,986.86
2017-12-14T06:07:59.852Z,986.86
2017-12-14T06:09:27.306Z,986.98
2017-12-14T06:10:54.524Z,987.01
2017-12-14T06:12:21.971Z,987.04
2017-12-14T06:13:49.105Z,987.03
2017-12-14T06:15:16.343Z,987.03
2017-12-14T06:16:43.395Z,987.07
2017-12-14T06:18:10.404Z,987.08
2017-12-14T06:19:37.683Z,987.04
2017-12-14T06:21:04.686Z,987.09
2017-12-14T06:22:31.931Z,987.07
2017-12-14T06:23:59.002Z,987.07
2017-12-14T06:25:26.322Z,987.12
2017-12-14T06:26:53.462Z,987.09
2017-12-14T06:28:20.744Z,987.15
2017-12-14T06:29:47.775Z,987.17
2017-12-14T06:31:15.080Z,987.24
2017-12-14T06:32:42.306Z,987.24
2017-12-14T06:34:09.443Z,987.22
2017-12-14T06:35:36.489Z,987.22
2017-12-14T06:37:03.533Z,987.19
2017-12-14T06:38:30.729Z,987.25
2017-12-14T06:39:57.941Z,987.28
2017-12-14T06:41:25.001Z,987.28
2017-12-14T06:42:52.305Z,987.27
2017-12-14T06:44:19.386Z,987.29
2017-12-14T06:45:46.468Z,987.31
2017-12-14T06:47:13.742Z,987.35
2017-12-14T06:48:41.008Z,987.44
2017-12-14T06:50:08.095Z,987.43
2017-12-14T06:51:35.204Z,987.46
2017-12-14T06:53:02.510Z,987.48
2017-12-14T06:54:29.686Z,987.47
2017-12-14T06:55:56.710Z,987.50
2017-12-14T06:57:24.062Z,987.45
2017-12-14T06:58:51.352Z,987.52
2017-12-14T07:00:18.470Z,987.51
2017-12-14T07:01:45.696Z,987.57
2017-12-14T07:03:12.776Z,987.65
2017-12-14T07:04:39.920Z,987.61
2017-12-14T07:06:07.097Z,987.67
2017-12-14T07:07:34.359Z,987.69
2017-12-14T07:09:01.500Z,987.69
2017-12-14T07:10:28.599Z,987.72
2017-12-14T07:11:55.799Z,987.76
2017-12-14T07:13:22.832Z,987.74
2017-12-14T07:14:50.213Z,987.76
2017-12-14T07:16:17.383Z,987.80
2017-12-14T07:17:44.617Z,987.84
2017-12-14T07:19:11.805Z,987.82
2017-12-14T07:20:39.169Z,987.87
2017-12-14T07:22:06.158Z,987.89
2017-12-14T07:23:33.431Z,987.91
2017-12-14T07:25:00.664Z,987.90
2017-12-14T07:26:27.893Z,987.94
2017-12-14T07:27:55.191Z,987.96
2017-12-14T07:29:22.363Z,987.94
2017-12-14T07:30:49.676Z,987.95
2017-12-14T07:32:16.792Z,987.95
2017-12-14T07:33:44.126Z,987.97
2017-12-14T07:35:11.181Z,987.99
2017-12-14T07:36:38.304Z,988.04
2017-12-14T07:38:05.336Z,988.08
2017-12-14T07:39:32.621Z,988.11
2017-12-14T07:40:59.693Z,988.01
2017-12-14T07:42:26.964Z,988.04
2017-12-14T07:43:54.264Z,988.05
2017-12-14T07:45:21.293Z,988.15
2017-12-14T07:46:48.534Z,988.15
2017-12-14T07:48:15.712Z,988.18
2017-12-14T07:49:42.892Z,988.22
2017-12-14T07:51:09.989Z,988.22
2017-12-14T07:52:37.259Z,988.26
2017-12-14T07:54:04.169Z,988.24
2017-12-14T07:55:31.569Z,988.25
2017-12-14T07:56:58.910Z,988.29
2017-12-14T07:58:26.093Z,988.27
2017-12-14T07:59:53.226Z,988.28
2017-12-14T08:01:20.497Z,988.26
2017-12-14T08:02:47.726Z,988.29
2017-12-14T08:04:14.782Z,988.29
2017-12-14T08:05:41.928Z,988.31
2017-12-14T08:07:09.149Z,988.30
2017-12-14T08:08:36.345Z,988.34
2017-12-14T08:10:03.851Z,988.29
2017-12-14T08:11:31.036Z,988.34
2017-12-14T08:12:58.242Z,988.39
2017-12-14T08:14:25.490Z,988.42
2017-12-14T08:15:52.830Z,988.42
2017-12-14T08:17:19.996Z,988.46
2017-12-14T08:18:47.260Z,988.46
2017-12-14T08:20:14.547Z,988.50
2017-12-14T08:21:41.624Z,988.53
2017-12-14T08:23:08.920Z,988.52
2017-12-14T08:24:36.074Z,988.53
2017-12-14T08:26:03.329Z,988.51
2017-12-14T08:27:30.531Z,988.52
2017-12-14T08:28:57.731Z,988.58
2017-12-14T08:30:26.119Z,988.61
2017-12-14T08:31:52.380Z,988.68
2017-12-14T08:33:19.719Z,988.75
2017-12-14T08:34:46.882Z,988.72
2017-12-14T08:36:14.182Z,988.74
2017-12-14T08:37:41.522Z,988.78
2017-12-14T08:39:08.776Z,988.83
2017-12-14T08:40:36.017Z,988.88
2017-12-14T08:42:03.195Z,988.89
2017-12-14T08:43:30.409Z,988.94
2017-12-14T08:44:57.469Z,988.98
2017-12-14T08:46:24.746Z,988.96
2017-12-14T08:47:52.008Z,989.00
2017-12-14T08:49:19.192Z,989.02
2017-12-14T08:50:46.429Z,989.07
2017-12-14T08:52:13.716Z,989.03
2017-12-14T08:53:41.045Z,989.10
2017-12-14T08:55:08.341Z,989.11
2017-12-14T08:56:35.315Z,989.14
2017-12-14T08:58:02.553Z,989.17
2017-12-14T08:59:30.028Z,989.18
2017-12-14T09:00:57.269Z,989.20
2017-12-14T09:02:24.301Z,989.18
2017-12-14T09:03:51.292Z,989.23
2017-12-14T09:05:18.764Z,989.25
2017-12-14T09:06:46.019Z,989.26
2017-12-14T09:08:13.262Z,989.30
2017-12-14T09:09:40.580Z,989.29
2017-12-14T09:11:07.679Z,989.26
2017-12-14T09:12:34.630Z,989.31
2017-12-14T09:14:01.712Z,989.34
2017-12-14T09:15:29.050Z,989.34
2017-12-14T09:16:56.330Z,989.38
2017-12-14T09:18:23.546Z,989.39
2017-12-14T09:19:50.872Z,989.43
2017-12-14T09:21:17.841Z,989.48
2017-12-14T09:22:45.250Z,989.49
2017-12-14T09:24:12.636Z,989.52
2017-12-14T09:25:39.702Z,989.55
2017-12-14T09:27:07.016Z,989.56
2017-12-14T09:28:34.236Z,989.58
2017-12-14T09:30:01.538Z,989.58
2017-12-14T09:31:28.537Z,989.56
2017-12-14T09:32:55.888Z,989.59
2017-12-14T09:34:23.323Z,989.55
2017-12-14T09:35:50.644Z,989.58
2017-12-14T09:37:17.859Z,989.62
2017-12-14T09:38:45.278Z,989.63
2017-12-14T09:40:12.559Z,989.60
2017-12-14T09:41:39.815Z,989.63
2017-12-14T09:43:06.932Z,989.67
2017-12-14T09:44:34.331Z,989.71
2017-12-14T09:46:01.477Z,989.71
2017-12-14T09:47:28.871Z,989.66
2017-12-14T09:48:56.007Z,989.70
2017-12-14T09:50:23.306Z,989.75
2017-12-14T09:51:50.326Z,989.72
2017-12-14T09:53:17.556Z,989.73
2017-12-14T09:54:44.760Z,989.77
2017-12-14T09:56:12.062Z,989.81
2017-12-14T09:57:39.482Z,989.86
2017-12-14T09:59:06.519Z,989.89
2017-12-14T10:00:33.669Z,989.94
2017-12-14T10:02:00.838Z,990.01
2017-12-14T10:03:28.000Z,989.99
2017-12-14T10:04:56.165Z,989.98
2017-12-14T10:06:22.352Z,989.99
2017-12-14T10:07:49.494Z,989.99
2017-12-14T10:09:16.750Z,990.04
2017-12-14T10:10:43.920Z,990.02
2017-12-14T10:12:10.929Z,990.03
2017-12-14T10:13:37.966Z,990.03
2017-12-14T10:15:05.148Z,990.07
2017-12-14T10:16:32.340Z,990.01
2017-12-14T10:17:59.504Z,990.11
2017-12-14T10:19:26.607Z,990.14
2017-12-14T10:20:53.739Z,990.18
2017-12-14T10:22:21.026Z,990.21
2017-12-14T10:23:48.299Z,990.23
2017-12-14T10:25:15.579Z,990.27
2017-12-14T10:26:42.881Z,990.30
2017-12-14T10:28:10.156Z,990.32
2017-12-14T10:29:37.260Z,990.33
2017-12-14T10:31:04.807Z,990.35
2017-12-14T10:32:32.139Z,990.34
2017-12-14T10:33:59.415Z,990.36
2017-12-14T10:35:26.698Z,990.38
2017-12-14T10:36:53.884Z,990.39
2017-12-14T10:38:21.203Z,990.43
2017-12-14T10:39:48.344Z,990.40
2017-12-14T10:41:15.453Z,990.40
2017-12-14T10:42:42.525Z,990.42
2017-12-14T10:44:09.697Z,990.43
2017-12-14T10:45:36.976Z,990.45
2017-12-14T10:47:04.020Z,990.48
2017-12-14T10:48:31.448Z,990.46
2017-12-14T10:49:58.854Z,990.47
2017-12-14T10:51:26.078Z,990.50
2017-12-14T10:52:53.351Z,990.55
2017-12-14T10:54:20.713Z,990.57
2017-12-14T10:55:47.981Z,990.57
2017-12-14T10:57:15.170Z,990.60
2017-12-14T10:58:42.260Z,990.57
2017-12-14T11:00:09.576Z,990.59
2017-12-14T11:01:36.611Z,990.61
2017-12-14T11:03:03.717Z,990.63
2017-12-14T11:04:30.854Z,990.60
2017-12-14T11:05:57.958Z,990.62
2017-12-14T11:07:25.346Z,990.59
2017-12-14T11:08:52.769Z,990.61
2017-12-14T11:10:20.040Z,990.63
2017-12-14T11:11:47.255Z,990.63
2017-12-14T11:13:14.604Z,990.66
2017-12-14T11:14:42.013Z,990.64
2017-12-14T11:16:09.035Z,990.63
2017-12-14T11:17:36.279Z,990.65
2017-12-14T11:19:03.473Z,990.60
2017-12-14T11:20:38.690Z,990.62
2017-12-14T11:21:57.871Z,990.64
2017-12-14T11:23:25.348Z,990.60
2017-12-14T11:24:52.622Z,990.64
2017-12-14T11:26:20.025Z,990.68
2017-12-14T11:27:47.283Z,990.73
2017-12-14T11:29:14.524Z,990.72
2017-12-14T11:30:41.768Z,990.72
2017-12-14T11:32:09.138Z,990.73
2017-12-14T11:33:36.065Z,990.76
2017-12-14T11:35:03.451Z,990.77
2017-12-14T11:36:30.552Z,990.82
2017-12-14T11:37:57.770Z,990.81
2017-12-14T11:39:24.682Z,990.79
2017-12-14T11:40:51.823Z,990.79
2017-12-14T11:42:19.060Z,990.79
2017-12-14T11:43:46.500Z,990.80
2017-12-14T11:45:13.580Z,990.81
2017-12-14T11:46:40.811Z,990.82
2017-12-14T11:48:08.308Z,990.75
2017-12-14T11:49:35.077Z,990.78
2017-12-14T11:51:02.519Z,990.78
2017-12-14T11:52:29.611Z,990.78
2017-12-14T11:53:56.919Z,990.78
2017-12-14T11:55:24.021Z,990.78
2017-12-14T11:56:51.325Z,990.79
2017-12-14T11:58:18.757Z,990.78
2017-12-14T11:59:45.905Z,990.82
2017-12-14T12:01:13.192Z,990.82
2017-12-14T12:02:40.444Z,990.80
2017-12-14T12:04:07.554Z,990.81
2017-12-14T12:05:34.687Z,990.75
2017-12-14T12:07:02.006Z,990.74
2017-12-14T12:08:29.416Z,990.76
2017-12-14T12:09:56.779Z,990.74
2017-12-14T12:11:23.841Z,990.73
2017-12-14T12:12:51.134Z,990.71
2017-12-14T12:14:18.438Z,990.70
2017-12-14T12:15:45.764Z,990.72
2017-12-14T12:17:13.015Z,990.74
2017-12-14T12:18:40.193Z,990.72
2017-12-14T12:20:07.181Z,990.79
2017-12-14T12:21:34.665Z,990.82
2017-12-14T12:23:02.026Z,990.85
2017-12-14T12:24:29.168Z,990.86
2017-12-14T12:25:56.354Z,990.85
2017-12-14T12:27:23.665Z,990.85
2017-12-14T12:28:51.030Z,990.87
2017-12-14T12:30:18.340Z,990.90
2017-12-14T12:31:45.706Z,990.90
2017-12-14T12:33:12.870Z,990.93
2017-12-14T12:34:40.197Z,990.98
2017-12-14T12:36:07.621Z,990.99
2017-12-14T12:37:34.515Z,991.04
2017-12-14T12:39:01.643Z,991.03
2017-12-14T12:40:29.082Z,991.04
2017-12-14T12:41:56.378Z,991.06
2017-12-14T12:43:23.667Z,991.06
2017-12-14T12:44:51.032Z,991.03
2017-12-14T12:46:18.354Z,991.09
2017-12-14T12:47:45.775Z,991.02
2017-12-14T12:49:12.936Z,991.09
2017-12-14T12:50:40.114Z,991.06
2017-12-14T12:52:06.950Z,991.10
2017-12-14T12:53:34.229Z,991.11
2017-12-14T12:55:01.465Z,991.11
2017-12-14T12:56:28.667Z,991.13
2017-12-14T12:57:55.987Z,991.16
2017-12-14T12:59:23.330Z,991.20
2017-12-14T13:00:50.688Z,991.20
2017-12-14T13:02:18.012Z,991.24
2017-12-14T13:03:45.391Z,991.25
2017-12-14T13:05:12.694Z,991.27
2017-12-14T13:06:39.951Z,991.28
2017-12-14T13:08:07.270Z,991.31
2017-12-14T13:09:34.889Z,991.33
2017-12-14T13:11:01.980Z,991.35
2017-12-14T13:12:29.251Z,991.40
2017-12-14T13:13:56.190Z,991.42
2017-12-14T13:15:23.436Z,991.42
2017-12-14T13:16:50.892Z,991.41
2017-12-14T13:18:18.021Z,991.46
2017-12-14T13:19:45.242Z,991.48
2017-12-14T13:21:12.532Z,991.48
2017-12-14T13:22:39.855Z,991.47
2017-12-14T13:24:07.045Z,991.50
2017-12-14T13:25:34.481Z,991.46
2017-12-14T13:27:01.680Z,991.51
2017-12-14T13:28:28.944Z,991.49
2017-12-14T13:29:55.954Z,991.50
2017-12-14T13:31:23.346Z,991.54
2017-12-14T13:32:50.793Z,991.53
2017-12-14T13:34:17.920Z,991.57
2017-12-14T13:35:45.135Z,991.63
2017-12-14T13:37:12.435Z,991.61
2017-12-14T13:38:39.708Z,991.60
2017-12-14T13:40:06.839Z,991.60
2017-12-14T13:41:34.159Z,991.63
2017-12-14T13:43:01.530Z,991.63
2017-12-14T13:44:28.755Z,991.62
2017-12-14T13:45:55.966Z,991.64
2017-12-14T13:47:23.205Z,991.68
2017-12-14T13:48:50.548Z,991.64
2017-12-14T13:50:18.001Z,991.70
2017-12-14T13:51:45.152Z,991.73
2017-12-14T13:53:12.348Z,991.75
2017-12-14T13:54:39.741Z,991.76
2017-12-14T13:56:06.827Z,991.78
2017-12-14T13:57:34.020Z,991.75
2017-12-14T13:59:01.244Z,991.73
2017-12-14T14:00:28.648Z,991.72
2017-12-14T14:01:55.917Z,991.78
2017-12-14T14:03:23.390Z,991.75
2017-12-14T14:04:50.371Z,991.78
2017-12-14T14:06:17.669Z,991.78
2017-12-14T14:07:45.084Z,991.78
2017-12-14T14:09:12.144Z,991.78
2017-12-14T14:10:39.428Z,991.80
2017-12-14T14:12:06.684Z,991.80
2017-12-14T14:13:33.734Z,991.86
2017-12-14T14:15:01.235Z,991.88
2017-12-14T14:16:28.477Z,991.90
2017-12-14T14:17:55.836Z,991.91
2017-12-14T14:19:23.176Z,991.96
2017-12-14T14:20:50.317Z,991.96
2017-12-14T14:22:17.543Z,992.00
2017-12-14T14:23:44.505Z,991.98
2017-12-14T14:25:11.698Z,991.98
2017-12-14T14:26:38.827Z,991.98
2017-12-14T14:28:05.777Z,991.99
2017-12-14T14:29:33.052Z,992.01
2017-12-14T14:31:00.389Z,992.03
2017-12-14T14:32:27.465Z,992.02
2017-12-14T14:33:54.672Z,992.02
2017-12-14T14:35:21.678Z,992.04
2017-12-14T14:36:48.837Z,992.03
2017-12-14T14:38:16.278Z,992.05
2017-12-14T14:39:43.543Z,992.04
2017-12-14T14:41:10.421Z,992.07
2017-12-14T14:42:37.780Z,992.08
2017-12-14T14:44:04.828Z,992.06
2017-12-14T14:45:32.087Z,992.07
2017-12-14T14:46:59.229Z,992.14
2017-12-14T14:48:26.408Z,992.11
2017-12-14T14:49:53.683Z,992.13
2017-12-14T14:51:20.873Z,992.10
2017-12-14T14:52:48.027Z,992.07
2017-12-14T14:54:15.181Z,992.11
2017-12-14T14:55:42.515Z,992.08
2017-12-14T14:57:09.782Z,992.11
2017-12-14T14:58:36.977Z,992.14
2017-12-14T15:00:04.151Z,992.14
2017-12-14T15:01:31.265Z,992.14
2017-12-14T15:02:58.436Z,992.14
2017-12-14T15:04:26.039Z,992.14
2017-12-14T15:05:53.274Z,992.18
2017-12-14T15:07:20.394Z,992.18
2017-12-14T15:08:47.607Z,992.18
2017-12-14T15:10:14.900Z,992.18
2017-12-14T15:11:42.323Z,992.14
2017-12-14T15:13:09.427Z,992.17
2017-12-14T15:14:36.716Z,992.21
2017-12-14T15:16:03.967Z,992.21
2017-12-14T15:17:31.352Z,992.25
2017-12-14T15:18:58.509Z,992.25
2017-12-14T15:20:25.823Z,992.28
2017-12-14T15:21:53.031Z,992.30
2017-12-14T15:23:20.115Z,992.35
2017-12-14T15:24:47.344Z,992.34
2017-12-14T15:26:14.742Z,992.35
2017-12-14T15:27:41.941Z,992.37
2017-12-14T15:29:09.113Z,992.36
2017-12-14T15:30:36.206Z,992.40
2017-12-14T15:32:03.341Z,992.45
2017-12-14T15:33:30.406Z,992.43
2017-12-14T15:34:57.680Z,992.42
2017-12-14T15:36:25.043Z,992.52
2017-12-14T15:37:52.288Z,992.55
2017-12-14T15:39:19.554Z,992.57
2017-12-14T15:40:46.892Z,992.57
2017-12-14T15:42:14.106Z,992.58
2017-12-14T15:43:41.492Z,992.58
2017-12-14T15:45:08.786Z,992.60
2017-12-14T15:46:36.093Z,992.59
2017-12-14T15:48:03.428Z,992.62
2017-12-14T15:49:30.490Z,992.59
2017-12-14T15:50:57.664Z,992.58
2017-12-14T15:52:24.889Z,992.57
2017-12-14T15:53:52.102Z,992.55
2017-12-14T15:55:19.186Z,992.54
2017-12-14T15:56:46.410Z,992.56
2017-12-14T15:58:13.568Z,992.51
2017-12-14T15:59:40.922Z,992.52
2017-12-14T16:01:08.160Z,992.49
2017-12-14T16:02:35.198Z,992.49
2017-12-14T16:04:02.508Z,992.46
2017-12-14T16:05:29.795Z,992.46
2017-12-14T16:06:57.082Z,992.49
2017-12-14T16:08:24.265Z,992.47
2017-12-14T16:09:51.594Z,992.48
2017-12-14T16:11:18.945Z,992.52
2017-12-14T16:12:46.045Z,992.54
2017-12-14T16:14:13.159Z,992.54
2017-12-14T16:15:40.154Z,992.56
2017-12-14T16:17:07.488Z,992.58
2017-12-14T16:18:34.810Z,992.56
2017-12-14T16:20:02.059Z,992.57
2017-12-14T16:21:29.385Z,992.55
2017-12-14T16:22:56.656Z,992.57
2017-12-14T16:24:24.154Z,992.58
2017-12-14T16:25:51.394Z,992.53
2017-12-14T16:27:18.754Z,992.54
2017-12-14T16:28:45.855Z,992.54
2017-12-14T16:30:12.756Z,992.53
2017-12-14T16:31:40.014Z,992.53
2017-12-14T16:33:07.182Z,992.56
2017-12-14T16:34:34.431Z,992.58
2017-12-14T16:36:01.751Z,992.60
2017-12-14T16:37:29.071Z,992.61
2017-12-14T16:38:56.498Z,992.63
2017-12-14T16:40:23.556Z,992.61
2017-12-14T16:41:50.714Z,992.62
2017-12-14T16:43:17.729Z,992.63
2017-12-14T16:44:45.140Z,992.63
2017-12-14T16:46:12.284Z,992.59
2017-12-14T16:47:39.665Z,992.60
2017-12-14T16:49:06.831Z,992.63
2017-12-14T16:50:34.105Z,992.65
2017-12-14T16:52:01.485Z,992.63
2017-12-14T16:53:28.705Z,992.65
2017-12-14T16:54:55.780Z,992.64
2017-12-14T16:56:23.067Z,992.66
2017-12-14T16:57:50.087Z,992.66
2017-12-14T16:59:17.352Z,992.65
2017-12-14T17:00:44.438Z,992.66
2017-12-14T17:02:11.698Z,992.67
2017-12-14T17:03:38.956Z,992.71
2017-12-14T17:05:06.187Z,992.71
2017-12-14T17:06:33.382Z,992.73
2017-12-14T17:08:00.575Z,992.73
2017-12-14T17:09:28.002Z,992.73
2017-12-14T17:10:55.347Z,992.75
2017-12-14T17:12:22.393Z,992.73
2017-12-14T17:13:49.700Z,992.70
2017-12-14T17:15:16.958Z,992.70
2017-12-14T17:16:43.953Z,992.70
2017-12-14T17:18:11.156Z,992.69
2017-12-14T17:19:38.435Z,992.67
2017-12-14T17:21:05.688Z,992.65
2017-12-14T17:22:32.887Z,992.66
2017-12-14T17:23:59.870Z,992.68
2017-12-14T17:25:27.237Z,992.65
2017-12-14T17:26:54.475Z,992.72
2017-12-14T17:28:21.811Z,992.69
2017-12-14T17:29:48.998Z,992.71
2017-12-14T17:31:16.170Z,992.72
2017-12-14T17:32:43.439Z,992.75
2017-12-14T17:34:10.631Z,992.75
2017-12-14T17:35:37.712Z,992.76
2017-12-14T17:37:04.872Z,992.75
2017-12-14T17:38:32.098Z,992.72
2017-12-14T17:39:59.403Z,992.75
2017-12-14T17:41:26.796Z,992.75
2017-12-14T17:42:54.013Z,992.76
2017-12-14T17:44:21.294Z,992.75
2017-12-14T17:45:48.465Z,992.73
2017-12-14T17:47:15.737Z,992.72
2017-12-14T17:48:42.962Z,992.72
2017-12-14T17:50:10.314Z,992.72
2017-12-14T17:51:37.619Z,992.73
2017-12-14T17:53:04.550Z,992.73
2017-12-14T17:54:31.879Z,992.73
2017-12-14T17:55:59.090Z,992.73
2017-12-14T17:57:26.506Z,992.76
2017-12-14T17:58:53.747Z,992.77
2017-12-14T18:00:20.973Z,992.75
2017-12-14T18:01:48.160Z,992.80
2017-12-14T18:03:15.407Z,992.82
2017-12-14T18:04:42.538Z,992.83
2017-12-14T18:06:09.839Z,992.85
2017-12-14T18:07:37.099Z,992.86